Time;durP1;ratioP1;P1;durP2;ratioP2;P2;SDS_P1;SDS_P2;PMS_P1;PMS_P2;Temp;Humidity;BMP_temperature;BMP_pressure;BME280_temperature;BME280_humidity;BME280_pressure;Samples;Min_cycle;Max_cycle;Signal;HPM_P1;HPM_P2
2022/06/28 00:00:13;;;;;;;5.10;4.90;;;;;;;-143.83;100.00;62900.06;5033828;28;20037;-60
2022/06/28 00:02:38;;;;;;;5.20;5.00;;;;;;;-143.83;100.00;62900.06;5033956;28;20492;-60
2022/06/28 00:05:04;;;;;;;5.25;5.05;;;;;;;-143.83;100.00;62900.06;5034793;28;20051;-59
2022/06/28 00:07:30;;;;;;;5.00;4.80;;;;;;;-143.83;100.00;62900.06;5032219;28;20029;-60
2022/06/28 00:09:56;;;;;;;5.25;5.05;;;;;;;-143.83;100.00;62900.06;5033422;28;20527;-60
2022/06/28 00:12:21;;;;;;;5.20;5.00;;;;;;;-143.83;100.00;62900.06;5037110;28;20024;-60
2022/06/28 00:17:31;;;;;;;5.22;5.03;;;;;;;-143.83;100.00;62900.06;5027960;28;20056;-60
2022/06/28 00:19:56;;;;;;;5.00;4.80;;;;;;;-143.83;100.00;62900.06;5030417;28;20033;-60
2022/06/28 00:22:22;;;;;;;5.20;5.00;;;;;;;-143.83;100.00;62900.06;5025798;28;20374;-60
2022/06/28 00:24:48;;;;;;;5.13;4.93;;;;;;;-143.83;100.00;62900.06;5025166;28;20022;-60
2022/06/28 00:27:13;;;;;;;5.15;4.95;;;;;;;-143.83;100.00;62900.06;5032586;28;20030;-62
2022/06/28 00:29:39;;;;;;;5.18;4.97;;;;;;;-143.83;100.00;62900.06;5043169;28;20029;-60
2022/06/28 00:32:05;;;;;;;5.18;4.97;;;;;;;-143.83;100.00;62900.06;5034602;28;20029;-59
2022/06/28 00:34:31;;;;;;;5.38;5.18;;;;;;;-143.83;100.00;62900.06;5034298;28;20086;-61
2022/06/28 00:36:56;;;;;;;5.20;5.00;;;;;;;-143.83;100.00;62900.06;5032480;28;20029;-61
2022/06/28 00:39:22;;;;;;;5.10;4.90;;;;;;;-143.83;100.00;62900.06;5034176;28;20389;-60
2022/06/28 00:41:48;;;;;;;5.30;5.10;;;;;;;-143.83;100.00;62900.06;5033689;28;20053;-61
2022/06/28 00:44:14;;;;;;;5.10;4.90;;;;;;;-143.83;100.00;62900.06;5019691;28;20084;-61
2022/06/28 00:46:39;;;;;;;5.13;4.93;;;;;;;-143.83;100.00;62900.06;5034436;28;20017;-61
2022/06/28 00:49:06;;;;;;;5.20;5.00;;;;;;;-143.83;100.00;62900.06;5033802;28;20485;-61
2022/06/28 00:51:32;;;;;;;5.20;5.00;;;;;;;-143.83;100.00;62900.06;5033738;28;20053;-61
2022/06/28 00:53:59;;;;;;;5.20;5.00;;;;;;;-143.83;100.00;62900.06;5032392;28;20034;-61
2022/06/28 00:56:25;;;;;;;5.40;5.20;;;;;;;-143.83;100.00;62900.06;5033777;28;20049;-60
2022/06/28 00:58:52;;;;;;;5.30;5.10;;;;;;;-143.83;100.00;62900.06;5032570;28;20068;-59
2022/06/28 01:01:19;;;;;;;5.20;5.00;;;;;;;-143.83;100.00;62900.06;5022031;28;20024;-60
2022/06/28 01:03:45;;;;;;;5.07;4.88;;;;;;;-143.83;100.00;62900.06;5034794;28;20113;-60
2022/06/28 01:06:11;;;;;;;5.18;4.97;;;;;;;-143.83;100.00;62900.06;5033591;28;20116;-61
2022/06/28 01:08:36;;;;;;;5.05;4.85;;;;;;;-143.83;100.00;62900.06;5031164;28;20523;-60
2022/06/28 01:11:18;;;;;;;5.20;5.00;;;;;;;-143.83;100.00;62900.06;5024026;28;20055;-60
2022/06/28 01:13:53;;;;;;;5.10;4.90;;;;;;;-143.83;100.00;62900.06;5033461;28;20497;-60
2022/06/28 01:16:20;;;;;;;5.10;4.90;;;;;;;-143.83;100.00;62900.06;5021251;28;20061;-61
2022/06/28 01:18:46;;;;;;;5.25;5.05;;;;;;;-143.83;100.00;62900.06;5031177;28;20037;-61
2022/06/28 01:21:14;;;;;;;5.28;5.07;;;;;;;-143.83;100.00;62900.06;5030807;28;20021;-61
2022/06/28 01:23:44;;;;;;;5.30;5.10;;;;;;;-143.83;100.00;62900.06;5033277;28;20171;-60
2022/06/28 01:26:12;;;;;;;5.20;5.00;;;;;;;-143.83;100.00;62900.06;5032305;28;20129;-61
2022/06/28 01:28:38;;;;;;;5.30;5.10;;;;;;;-143.83;100.00;62900.06;5032745;28;20119;-61
2022/06/28 01:31:05;;;;;;;5.25;5.05;;;;;;;-143.83;100.00;62900.06;5033226;28;20028;-61
2022/06/28 01:33:32;;;;;;;5.28;5.07;;;;;;;-143.83;100.00;62900.06;5021601;28;20029;-61
2022/06/28 01:35:57;;;;;;;5.30;5.10;;;;;;;-143.83;100.00;62900.06;5030501;28;20037;-60
2022/06/28 01:38:24;;;;;;;5.28;5.07;;;;;;;-143.83;100.00;62900.06;5033285;28;20021;-60
2022/06/28 01:40:49;;;;;;;5.20;5.00;;;;;;;-143.83;100.00;62900.06;5033175;28;20029;-60
2022/06/28 01:43:17;;;;;;;5.13;4.93;;;;;;;-143.83;100.00;62900.06;5033099;28;20386;-60
2022/06/28 01:45:42;;;;;;;5.30;5.10;;;;;;;-143.83;100.00;62900.06;5032172;28;20025;-61
2022/06/28 01:48:08;;;;;;;5.30;5.10;;;;;;;-143.83;100.00;62900.06;5031817;28;20032;-61
2022/06/28 01:50:34;;;;;;;5.20;5.00;;;;;;;-143.83;100.00;62900.06;5032567;28;20103;-60
2022/06/28 01:53:00;;;;;;;5.13;4.93;;;;;;;-143.83;100.00;62900.06;5031022;28;20065;-60
2022/06/28 01:55:25;;;;;;;5.30;5.10;;;;;;;-143.83;100.00;62900.06;5032990;28;20476;-60
2022/06/28 01:57:51;;;;;;;5.10;4.90;;;;;;;-143.83;100.00;62900.06;5032622;28;20025;-60
2022/06/28 02:00:17;;;;;;;5.15;4.95;;;;;;;-143.83;100.00;62900.06;5032592;28;20026;-61
2022/06/28 02:02:43;;;;;;;5.20;5.00;;;;;;;-143.83;100.00;62900.06;5028678;28;20029;-61
2022/06/28 02:05:09;;;;;;;5.15;4.95;;;;;;;-143.83;100.00;62900.06;5032740;28;20120;-60
2022/06/28 02:07:34;;;;;;;5.10;4.90;;;;;;;-143.83;100.00;62900.06;5032617;28;20100;-60
2022/06/28 02:10:00;;;;;;;5.13;4.93;;;;;;;-143.83;100.00;62900.06;5030259;28;20120;-61
2022/06/28 02:12:28;;;;;;;5.28;5.07;;;;;;;-143.83;100.00;62900.06;5040078;28;20056;-60
2022/06/28 02:14:56;;;;;;;5.20;5.00;;;;;;;-143.83;100.00;62900.06;5032048;28;20022;-60
2022/06/28 02:17:21;;;;;;;5.25;5.05;;;;;;;-143.83;100.00;62900.06;5025380;28;20036;-59
2022/06/28 02:19:47;;;;;;;5.20;5.00;;;;;;;-143.83;100.00;62900.06;5030191;28;20399;-60
2022/06/28 02:22:13;;;;;;;5.10;4.90;;;;;;;-143.83;100.00;62900.06;5030971;28;20457;-61
2022/06/28 02:24:38;;;;;;;5.15;4.95;;;;;;;-143.83;100.00;62900.06;5032041;28;20087;-60
2022/06/28 02:27:04;;;;;;;5.10;4.90;;;;;;;-143.83;100.00;62900.06;5032083;28;20064;-60
2022/06/28 02:29:29;;;;;;;5.20;5.00;;;;;;;-143.83;100.00;62900.06;5031767;28;20113;-60
2022/06/28 02:31:55;;;;;;;5.20;5.00;;;;;;;-143.83;100.00;62900.06;5031893;28;20477;-62
2022/06/28 02:42:32;;;;;;;5.20;5.00;;;;;;;-143.83;100.00;62900.06;5031428;28;20044;-61
2022/06/28 02:44:58;;;;;;;5.20;5.00;;;;;;;-143.83;100.00;62900.06;5037144;28;20033;-61
2022/06/28 02:47:23;;;;;;;5.20;5.00;;;;;;;-143.83;100.00;62900.06;5031890;28;20114;-62
2022/06/28 02:49:49;;;;;;;5.20;5.00;;;;;;;-143.83;100.00;62900.06;5031448;28;20139;-61
2022/06/28 02:52:15;;;;;;;5.10;4.90;;;;;;;-143.83;100.00;62900.06;5028934;28;20044;-62
2022/06/28 02:54:40;;;;;;;5.25;5.05;;;;;;;-143.83;100.00;62900.06;5032015;28;20099;-62
2022/06/28 02:57:06;;;;;;;5.22;5.03;;;;;;;-143.83;100.00;62900.06;5031571;28;20095;-62
2022/06/28 02:59:31;;;;;;;5.30;5.10;;;;;;;-143.83;100.00;62900.06;5024937;28;20100;-61
2022/06/28 03:01:56;;;;;;;5.40;5.20;;;;;;;-143.83;100.00;62900.06;5031820;28;20506;-63
2022/06/28 03:04:23;;;;;;;5.47;5.28;;;;;;;-143.83;100.00;62900.06;5020161;28;20029;-62
2022/06/28 03:06:49;;;;;;;5.40;5.20;;;;;;;-143.83;100.00;62900.06;5034805;28;20060;-61
2022/06/28 03:09:14;;;;;;;5.40;5.20;;;;;;;-143.83;100.00;62900.06;5034069;28;20029;-61
2022/06/28 03:11:40;;;;;;;5.32;5.13;;;;;;;-143.83;100.00;62900.06;5035732;28;20037;-61
2022/06/28 03:14:05;;;;;;;5.38;5.18;;;;;;;-143.83;100.00;62900.06;5030424;28;20031;-62
2022/06/28 03:16:31;;;;;;;5.45;5.25;;;;;;;-143.83;100.00;62900.06;5026379;28;20516;-62
2022/06/28 03:18:56;;;;;;;5.50;5.30;;;;;;;-143.83;100.00;62900.06;5041819;28;20164;-59
2022/06/28 03:21:22;;;;;;;5.57;5.38;;;;;;;-143.83;100.00;62900.06;5051900;28;20481;-60
2022/06/28 03:23:47;;;;;;;5.53;5.32;;;;;;;-143.83;100.00;62900.06;5033736;28;20083;-61
2022/06/28 03:26:13;;;;;;;5.70;5.50;;;;;;;-143.83;100.00;62900.06;5034400;28;20048;-60
2022/06/28 03:28:38;;;;;;;5.60;5.40;;;;;;;-143.83;100.00;62900.06;5035517;28;20029;-61
2022/06/28 03:31:04;;;;;;;5.80;5.60;;;;;;;-143.83;100.00;62900.06;5035085;28;20036;-60
2022/06/28 03:33:30;;;;;;;5.70;5.50;;;;;;;-143.83;100.00;62900.06;5035598;28;20580;-61
2022/06/28 03:35:56;;;;;;;5.70;5.50;;;;;;;-143.83;100.00;62900.06;5033841;28;20116;-60
2022/06/28 03:38:21;;;;;;;5.68;5.47;;;;;;;-143.83;100.00;62900.06;5035222;28;20064;-60
2022/06/28 03:40:47;;;;;;;5.80;5.60;;;;;;;-143.83;100.00;62900.06;5033435;28;20030;-60
2022/06/28 03:43:12;;;;;;;5.90;5.70;;;;;;;-143.83;100.00;62900.06;5030535;28;20120;-60
2022/06/28 03:45:38;;;;;;;5.90;5.70;;;;;;;-143.83;100.00;62900.06;5023957;28;20037;-61
2022/06/28 03:48:04;;;;;;;5.80;5.60;;;;;;;-143.83;100.00;62900.06;5031872;28;20021;-60
2022/06/28 03:50:29;;;;;;;5.90;5.70;;;;;;;-143.83;100.00;62900.06;5032627;28;20049;-62
2022/06/28 03:52:55;;;;;;;5.80;5.60;;;;;;;-143.83;100.00;62900.06;5036662;28;20033;-61
2022/06/28 03:55:20;;;;;;;5.78;5.57;;;;;;;-143.83;100.00;62900.06;5034822;28;20036;-61
2022/06/28 03:57:46;;;;;;;5.75;5.55;;;;;;;-143.83;100.00;62900.06;5043178;28;20456;-60
2022/06/28 04:00:12;;;;;;;5.78;5.57;;;;;;;-143.83;100.00;62900.06;5032837;28;20410;-60
2022/06/28 04:02:37;;;;;;;5.60;5.40;;;;;;;-143.83;100.00;62900.06;5033126;28;20436;-61
2022/06/28 04:05:03;;;;;;;5.60;5.40;;;;;;;-143.83;100.00;62900.06;5035841;28;20029;-61
2022/06/28 04:07:28;;;;;;;5.60;5.40;;;;;;;-143.83;100.00;62900.06;5021919;28;20374;-60
2022/06/28 04:09:54;;;;;;;5.50;5.30;;;;;;;-143.83;100.00;62900.06;5026770;28;20028;-61
2022/06/28 04:12:19;;;;;;;5.55;5.35;;;;;;;-143.83;100.00;62900.06;5034179;28;20095;-60
2022/06/28 04:14:45;;;;;;;5.40;5.20;;;;;;;-143.83;100.00;62900.06;5034185;28;20038;-61
2022/06/28 04:17:11;;;;;;;5.60;5.40;;;;;;;-143.83;100.00;62900.06;5032298;28;20512;-61
2022/06/28 04:19:38;;;;;;;5.53;5.32;;;;;;;-143.83;100.00;62900.06;5032744;28;20036;-61
2022/06/28 04:22:04;;;;;;;5.47;5.28;;;;;;;-143.83;100.00;62900.06;5034087;28;20034;-61
2022/06/28 04:24:30;;;;;;;5.50;5.30;;;;;;;-143.83;100.00;62900.06;5033961;28;20033;-60
2022/06/28 04:26:56;;;;;;;5.40;5.20;;;;;;;-143.83;100.00;62900.06;5034594;28;20036;-61
2022/06/28 04:29:21;;;;;;;5.50;5.30;;;;;;;-143.83;100.00;62900.06;5038435;28;20021;-60
2022/06/28 04:31:47;;;;;;;5.50;5.30;;;;;;;-143.83;100.00;62900.06;5024777;28;20025;-60
2022/06/28 04:34:12;;;;;;;5.57;5.38;;;;;;;-143.83;100.00;62900.06;5023245;28;20026;-60
2022/06/28 04:36:38;;;;;;;5.50;5.30;;;;;;;-143.83;100.00;62900.06;5041101;28;20036;-62
2022/06/28 04:39:04;;;;;;;5.60;5.40;;;;;;;-143.83;100.00;62900.06;5047696;28;20045;-61
2022/06/28 04:41:29;;;;;;;5.60;5.40;;;;;;;-143.83;100.00;62900.06;5029876;28;20044;-61
2022/06/28 04:43:55;;;;;;;5.60;5.40;;;;;;;-143.83;100.00;62900.06;5041199;28;20129;-61
2022/06/28 04:46:21;;;;;;;5.80;5.60;;;;;;;-143.83;100.00;62900.06;5034355;28;20037;-60
2022/06/28 04:48:47;;;;;;;5.60;5.40;;;;;;;-143.83;100.00;62900.06;5043298;28;20033;-63
2022/06/28 04:51:13;;;;;;;5.72;5.53;;;;;;;-143.83;100.00;62900.06;5021972;28;20041;-59
2022/06/28 04:53:43;;;;;;;5.80;5.60;;;;;;;-143.83;100.00;62900.06;5028974;28;20270;-60
2022/06/28 04:56:10;;;;;;;5.63;5.43;;;;;;;-143.83;100.00;62900.06;5034871;28;20021;-61
2022/06/28 04:58:35;;;;;;;5.80;5.60;;;;;;;-143.83;100.00;62900.06;5017164;28;20021;-62
2022/06/28 05:01:01;;;;;;;5.82;5.63;;;;;;;-143.83;100.00;62900.06;5037779;28;20107;-60
2022/06/28 05:03:27;;;;;;;5.72;5.53;;;;;;;-143.83;100.00;62900.06;5043461;28;20025;-61
2022/06/28 05:05:53;;;;;;;5.80;5.60;;;;;;;-143.83;100.00;62900.06;5025016;28;20022;-61
2022/06/28 05:08:19;;;;;;;5.78;5.57;;;;;;;-143.83;100.00;62900.06;5023824;28;20044;-60
2022/06/28 05:10:44;;;;;;;6.07;5.88;;;;;;;-143.83;100.00;62900.06;5029985;28;20101;-63
2022/06/28 05:13:10;;;;;;;6.13;5.93;;;;;;;-143.83;100.00;62900.06;5028387;28;20100;-61
2022/06/28 05:15:35;;;;;;;6.10;5.90;;;;;;;-143.83;100.00;62900.06;5033830;28;20120;-62
2022/06/28 05:18:01;;;;;;;6.40;6.10;;;;;;;-143.83;100.00;62900.06;5032816;28;20029;-62
2022/06/28 05:20:26;;;;;;;6.47;6.18;;;;;;;-143.83;100.00;62900.06;5043092;28;20017;-62
2022/06/28 05:22:52;;;;;;;6.50;6.20;;;;;;;-143.83;100.00;62900.06;5032956;28;20390;-61
2022/06/28 05:25:17;;;;;;;6.28;6.05;;;;;;;-143.83;100.00;62900.06;5033975;28;20544;-62
2022/06/28 05:27:43;;;;;;;6.20;6.00;;;;;;;-143.83;100.00;62900.06;5029075;28;20024;-61
2022/06/28 05:30:09;;;;;;;6.45;6.15;;;;;;;-143.83;100.00;62900.06;5042290;28;20458;-63
2022/06/28 05:32:35;;;;;;;6.45;6.15;;;;;;;-143.83;100.00;62900.06;5041703;28;20025;-62
2022/06/28 05:35:00;;;;;;;6.40;6.10;;;;;;;-143.83;100.00;62900.06;5038473;28;20100;-64
2022/06/28 05:37:26;;;;;;;6.50;6.20;;;;;;;-143.83;100.00;62900.06;5022957;28;20025;-63
2022/06/28 05:39:51;;;;;;;6.55;6.25;;;;;;;-143.83;100.00;62900.06;5028790;28;20029;-62
2022/06/28 05:42:17;;;;;;;6.60;6.30;;;;;;;-143.83;100.00;62900.06;5034263;28;20024;-63
2022/06/28 05:44:43;;;;;;;6.60;6.30;;;;;;;-143.83;100.00;62900.06;5014982;28;20026;-63
2022/06/28 05:47:10;;;;;;;6.57;6.28;;;;;;;-143.83;100.00;62900.06;5020104;28;20030;-63
2022/06/28 05:49:36;;;;;;;6.53;6.22;;;;;;;-143.83;100.00;62900.06;5026569;28;20053;-62
2022/06/28 05:52:01;;;;;;;6.20;6.00;;;;;;;-143.83;100.00;62900.06;5031171;28;20032;-62
2022/06/28 05:54:27;;;;;;;6.30;6.05;;;;;;;-143.83;100.00;62900.06;5031874;28;20020;-62
2022/06/28 05:56:52;;;;;;;6.45;6.15;;;;;;;-143.83;100.00;62900.06;5019260;28;20109;-61
2022/06/28 05:59:18;;;;;;;6.65;6.35;;;;;;;-143.83;100.00;62900.06;5030635;28;20021;-62
2022/06/28 06:01:43;;;;;;;6.20;6.00;;;;;;;-143.83;100.00;62900.06;5022310;28;20105;-61
2022/06/28 06:04:09;;;;;;;6.30;6.07;;;;;;;-143.83;100.00;62900.06;5017463;28;20017;-62
2022/06/28 06:06:34;;;;;;;6.50;6.20;;;;;;;-143.83;100.00;62900.06;5030666;28;20029;-61
2022/06/28 06:09:00;;;;;;;6.60;6.30;;;;;;;-143.83;100.00;62900.06;5030537;28;20449;-62
2022/06/28 06:11:25;;;;;;;6.57;6.28;;;;;;;-143.83;100.00;62900.06;5030339;28;20052;-62
2022/06/28 06:13:51;;;;;;;6.50;6.20;;;;;;;-143.83;100.00;62900.06;5031436;28;20542;-62
2022/06/28 06:16:16;;;;;;;6.50;6.20;;;;;;;-143.83;100.00;62900.06;5031302;28;20101;-61
2022/06/28 06:18:42;;;;;;;6.68;6.38;;;;;;;-143.83;100.00;62900.06;5032069;28;20517;-61
2022/06/28 06:21:08;;;;;;;6.60;6.30;;;;;;;-143.83;100.00;62900.06;5031702;28;20396;-62
2022/06/28 06:23:34;;;;;;;6.53;6.22;;;;;;;-143.83;100.00;62900.06;5031336;28;20036;-62
2022/06/28 06:26:01;;;;;;;6.50;6.20;;;;;;;-143.83;100.00;62900.06;5029813;28;20074;-62
2022/06/28 06:28:26;;;;;;;6.60;6.30;;;;;;;-143.83;100.00;62900.06;5029856;28;20030;-62
2022/06/28 06:30:53;;;;;;;6.53;6.22;;;;;;;-143.83;100.00;62900.06;5030213;28;20021;-61
2022/06/28 06:33:18;;;;;;;6.50;6.20;;;;;;;-143.83;100.00;62900.06;5029317;28;20112;-62
2022/06/28 06:35:44;;;;;;;6.50;6.20;;;;;;;-143.83;100.00;62900.06;5030374;28;20108;-61
2022/06/28 06:38:09;;;;;;;6.65;6.35;;;;;;;-143.83;100.00;62900.06;5030108;28;20463;-63
2022/06/28 06:40:36;;;;;;;6.75;6.45;;;;;;;-143.83;100.00;62900.06;5031824;28;20112;-62
2022/06/28 06:43:02;;;;;;;6.25;6.03;;;;;;;-143.83;100.00;62900.06;5032024;28;20405;-62
2022/06/28 06:45:28;;;;;;;6.35;6.07;;;;;;;-143.83;100.00;62900.06;5032059;28;20112;-62
2022/06/28 06:47:54;;;;;;;6.57;6.28;;;;;;;-143.83;100.00;62900.06;5031702;28;20453;-61
2022/06/28 06:50:21;;;;;;;6.60;6.30;;;;;;;-143.83;100.00;62900.06;5024296;28;20050;-61
2022/06/28 06:52:47;;;;;;;6.60;6.30;;;;;;;-143.83;100.00;62900.06;5025724;28;20033;-64
2022/06/28 06:55:12;;;;;;;6.47;6.18;;;;;;;-143.83;100.00;62900.06;5030128;28;20044;-63
2022/06/28 06:57:38;;;;;;;6.80;6.50;;;;;;;-143.83;100.00;62900.06;5026665;28;20553;-62
2022/06/28 07:00:05;;;;;;;6.80;6.50;;;;;;;-143.83;100.00;62900.06;5029266;28;20472;-62
2022/06/28 07:02:30;;;;;;;6.65;6.35;;;;;;;-143.83;100.00;62900.06;5031615;28;20037;-63
2022/06/28 07:04:56;;;;;;;6.90;6.60;;;;;;;-143.83;100.00;62900.06;5031775;28;20033;-63
2022/06/28 07:07:22;;;;;;;6.82;6.53;;;;;;;-143.83;100.00;62900.06;5030694;28;20021;-61
2022/06/28 07:09:49;;;;;;;6.72;6.43;;;;;;;-143.83;100.00;62900.06;5031560;28;20021;-63
2022/06/28 07:12:14;;;;;;;6.70;6.40;;;;;;;-143.83;100.00;62900.06;5022884;28;20112;-61
2022/06/28 07:14:40;;;;;;;6.90;6.60;;;;;;;-143.83;100.00;62900.06;5031412;28;20159;-61
2022/06/28 07:17:05;;;;;;;6.53;6.22;;;;;;;-143.83;100.00;62900.06;5031418;28;20030;-62
2022/06/28 07:19:31;;;;;;;6.68;6.38;;;;;;;-143.83;100.00;62900.06;5027480;28;20515;-61
2022/06/28 07:21:56;;;;;;;6.70;6.40;;;;;;;-143.83;100.00;62900.06;5021747;28;20507;-61
2022/06/28 07:24:22;;;;;;;6.43;6.13;;;;;;;-143.83;100.00;62900.06;5026414;28;20025;-62
2022/06/28 07:26:49;;;;;;;6.40;6.10;;;;;;;-143.83;100.00;62900.06;5020456;28;20040;-63
2022/06/28 07:29:14;;;;;;;5.97;5.78;;;;;;;-143.83;100.00;62900.06;5023823;28;20018;-62
2022/06/28 07:31:41;;;;;;;6.40;6.10;;;;;;;-143.83;100.00;62900.06;5026210;28;20029;-61
2022/06/28 07:34:08;;;;;;;6.13;5.93;;;;;;;-143.83;100.00;62900.06;5025041;28;20384;-63
2022/06/28 07:36:34;;;;;;;6.10;5.90;;;;;;;-143.83;100.00;62900.06;5029084;28;20026;-62
2022/06/28 07:38:59;;;;;;;6.45;6.15;;;;;;;-143.83;100.00;62900.06;5021229;28;20033;-61
2022/06/28 07:41:25;;;;;;;6.03;5.82;;;;;;;-143.83;100.00;62900.06;5026089;28;20480;-61
2022/06/28 07:43:53;;;;;;;6.22;6.00;;;;;;;-143.83;100.00;62900.06;5029185;28;20042;-62
2022/06/28 07:46:20;;;;;;;6.05;5.85;;;;;;;-143.83;100.00;62900.06;5021720;28;20444;-62
2022/06/28 07:48:46;;;;;;;6.25;6.03;;;;;;;-143.83;100.00;62900.06;5030369;28;20107;-61
2022/06/28 07:53:58;;;;;;;5.95;5.75;;;;;;;-143.83;100.00;62900.06;5029271;28;20040;-62
2022/06/28 07:56:23;;;;;;;5.90;5.70;;;;;;;-143.83;100.00;62900.06;5030084;28;20040;-62
2022/06/28 07:58:49;;;;;;;5.97;5.78;;;;;;;-143.83;100.00;62900.06;5032612;28;20018;-61
2022/06/28 08:01:15;;;;;;;5.97;5.78;;;;;;;-143.83;100.00;62900.06;5034442;28;20068;-61
2022/06/28 08:03:40;;;;;;;5.82;5.63;;;;;;;-143.83;100.00;62900.06;5034689;28;20036;-62
2022/06/28 08:06:06;;;;;;;5.90;5.70;;;;;;;-143.83;100.00;62900.06;5034563;28;20061;-60
2022/06/28 08:08:32;;;;;;;6.00;5.80;;;;;;;-143.83;100.00;62900.06;5034653;28;20405;-60
2022/06/28 08:10:57;;;;;;;5.88;5.68;;;;;;;-143.83;100.00;62900.06;5034851;28;20033;-61
2022/06/28 08:13:23;;;;;;;5.80;5.60;;;;;;;-143.83;100.00;62900.06;5034482;28;20323;-61
2022/06/28 08:15:49;;;;;;;5.80;5.60;;;;;;;-143.83;100.00;62900.06;5033468;28;20025;-62
2022/06/28 08:18:15;;;;;;;5.80;5.60;;;;;;;-143.83;100.00;62900.06;5034600;28;20071;-61
2022/06/28 08:20:41;;;;;;;6.00;5.80;;;;;;;-143.83;100.00;62900.06;5034394;28;20021;-61
2022/06/28 08:23:06;;;;;;;5.72;5.53;;;;;;;-143.83;100.00;62900.06;5034458;28;20060;-61
2022/06/28 08:25:32;;;;;;;5.90;5.70;;;;;;;-143.83;100.00;62900.06;5034246;28;20029;-60
2022/06/28 08:27:58;;;;;;;5.88;5.68;;;;;;;-143.83;100.00;62900.06;5034319;28;20037;-60
2022/06/28 08:30:25;;;;;;;5.70;5.50;;;;;;;-143.83;100.00;62900.06;5033933;28;20539;-60
2022/06/28 08:32:51;;;;;;;5.68;5.47;;;;;;;-143.83;100.00;62900.06;5032972;28;20040;-60
2022/06/28 08:35:17;;;;;;;5.80;5.60;;;;;;;-143.83;100.00;62900.06;5034286;28;20145;-60
2022/06/28 08:37:43;;;;;;;5.80;5.60;;;;;;;-143.83;100.00;62900.06;5022593;28;20548;-60
2022/06/28 08:40:09;;;;;;;5.75;5.55;;;;;;;-143.83;100.00;62900.06;5034198;28;20034;-59
2022/06/28 08:42:37;;;;;;;5.70;5.50;;;;;;;-143.83;100.00;62900.06;5033926;28;20527;-60
2022/06/28 08:45:03;;;;;;;5.78;5.57;;;;;;;-143.83;100.00;62900.06;5028568;28;20538;-61
2022/06/28 08:47:34;;;;;;;5.82;5.63;;;;;;;-143.83;100.00;62900.06;5033434;28;20049;-61
2022/06/28 08:50:10;;;;;;;5.90;5.70;;;;;;;-143.83;100.00;62900.06;5024736;28;20045;-61
2022/06/28 08:52:36;;;;;;;5.82;5.63;;;;;;;-143.83;100.00;62900.06;5026841;28;20029;-60
2022/06/28 08:55:06;;;;;;;5.75;5.55;;;;;;;-143.83;100.00;62900.06;5035564;28;20029;-60
2022/06/28 08:57:32;;;;;;;5.60;5.40;;;;;;;-143.83;100.00;62900.06;5020795;28;20204;-59
2022/06/28 08:59:59;;;;;;;6.00;5.80;;;;;;;-143.83;100.00;62900.06;5025943;28;20469;-58
2022/06/28 09:02:24;;;;;;;5.60;5.40;;;;;;;-143.83;100.00;62900.06;5031861;28;20076;-60
2022/06/28 09:04:53;;;;;;;5.70;5.50;;;;;;;-143.83;100.00;62900.06;5031539;28;20037;-60
2022/06/28 09:07:20;;;;;;;5.50;5.30;;;;;;;-143.83;100.00;62900.06;5021680;28;20508;-61
2022/06/28 09:09:46;;;;;;;5.90;5.70;;;;;;;-143.83;100.00;62900.06;5022679;28;20453;-60
2022/06/28 09:12:12;;;;;;;5.65;5.45;;;;;;;-143.83;100.00;62900.06;5031846;28;20080;-61
2022/06/28 09:14:38;;;;;;;5.80;5.60;;;;;;;-143.83;100.00;62900.06;5031838;28;20044;-60
2022/06/28 09:17:36;;;;;;;5.65;5.45;;;;;;;-143.83;100.00;62900.06;5034684;28;20022;-62
2022/06/28 09:20:08;;;;;;;5.80;5.60;;;;;;;-143.83;100.00;62900.06;5019266;28;20042;-61
2022/06/28 09:22:39;;;;;;;5.80;5.60;;;;;;;-143.83;100.00;62900.06;5017347;28;20404;-62
2022/06/28 09:25:09;;;;;;;5.82;5.63;;;;;;;-143.83;100.00;62900.06;5018276;28;20021;-62
2022/06/28 09:27:37;;;;;;;5.85;5.65;;;;;;;-143.83;100.00;62900.06;5018196;28;20091;-61
2022/06/28 09:30:05;;;;;;;5.78;5.57;;;;;;;-143.83;100.00;62900.06;5029136;28;20034;-61
2022/06/28 09:32:33;;;;;;;5.70;5.50;;;;;;;-143.83;100.00;62900.06;5025406;28;20044;-62
2022/06/28 09:35:04;;;;;;;5.70;5.50;;;;;;;-143.83;100.00;62900.06;5029528;28;20392;-61
2022/06/28 09:37:38;;;;;;;5.60;5.40;;;;;;;-143.83;100.00;62900.06;5027082;28;20512;-63
2022/06/28 09:40:31;;;;;;;5.90;5.70;;;;;;;-143.83;100.00;62900.06;5028594;28;20072;-63
2022/06/28 09:43:15;;;;;;;5.70;5.50;;;;;;;-143.83;100.00;62900.06;5018052;28;20029;-62
2022/06/28 09:45:43;;;;;;;5.78;5.57;;;;;;;-143.83;100.00;62900.06;5028894;28;20260;-62
2022/06/28 09:48:15;;;;;;;5.80;5.60;;;;;;;-143.83;100.00;62900.06;5028109;28;20057;-62
2022/06/28 09:50:40;;;;;;;5.70;5.50;;;;;;;-143.83;100.00;62900.06;5018740;28;20050;-62
2022/06/28 09:53:07;;;;;;;5.70;5.50;;;;;;;-143.83;100.00;62900.06;5014734;28;20057;-61
2022/06/28 09:55:33;;;;;;;5.70;5.50;;;;;;;-143.83;100.00;62900.06;5023691;28;20420;-61
2022/06/28 09:58:00;;;;;;;5.80;5.60;;;;;;;-143.83;100.00;62900.06;5026779;28;20021;-62
2022/06/28 10:00:28;;;;;;;5.70;5.50;;;;;;;-143.83;100.00;62900.06;5026790;28;20040;-63
2022/06/28 10:02:54;;;;;;;5.75;5.55;;;;;;;-143.83;100.00;62900.06;5027013;28;20029;-62
2022/06/28 10:05:21;;;;;;;5.65;5.45;;;;;;;-143.83;100.00;62900.06;5021275;28;20492;-63
2022/06/28 10:07:46;;;;;;;5.70;5.50;;;;;;;-143.83;100.00;62900.06;5022123;28;20041;-61
2022/06/28 10:10:12;;;;;;;5.70;5.50;;;;;;;-143.83;100.00;62900.06;5025972;28;20029;-63
2022/06/28 10:15:26;;;;;;;5.80;5.60;;;;;;;-143.83;100.00;62900.06;5023783;28;20044;-61
2022/06/28 10:18:01;;;;;;;5.75;5.55;;;;;;;-143.83;100.00;62900.06;5028182;28;20045;-62
2022/06/28 10:20:29;;;;;;;5.70;5.50;;;;;;;-143.83;100.00;62900.06;5023290;28;20482;-61
2022/06/28 10:23:24;;;;;;;5.82;5.63;;;;;;;-143.83;100.00;62900.06;5031822;28;20481;-62
2022/06/28 10:26:18;;;;;;;5.60;5.40;;;;;;;-143.83;100.00;62900.06;5030760;28;20124;-64
2022/06/28 10:29:04;;;;;;;5.50;5.30;;;;;;;-143.83;100.00;62900.06;5025923;28;20241;-62
2022/06/28 10:31:45;;;;;;;5.68;5.47;;;;;;;-143.83;100.00;62900.06;5012742;28;20041;-64
2022/06/28 10:34:23;;;;;;;5.70;5.50;;;;;;;-143.83;100.00;62900.06;5015929;28;20078;-62
2022/06/28 10:36:54;;;;;;;5.63;5.43;;;;;;;-143.83;100.00;62900.06;5036217;28;20044;-62
2022/06/28 10:39:29;;;;;;;5.63;5.43;;;;;;;-143.83;100.00;62900.06;5032389;28;20112;-63
2022/06/28 10:42:01;;;;;;;5.57;5.38;;;;;;;-143.83;100.00;62900.06;5027292;28;20041;-63
2022/06/28 10:44:32;;;;;;;5.70;5.50;;;;;;;-143.83;100.00;62900.06;5020728;28;20025;-62
2022/06/28 10:47:11;;;;;;;5.50;5.30;;;;;;;-143.83;100.00;62900.06;5015853;28;20044;-63
2022/06/28 10:49:45;;;;;;;5.50;5.30;;;;;;;-143.83;100.00;62900.06;5020989;28;20513;-75
2022/06/28 10:52:14;;;;;;;5.70;5.50;;;;;;;-143.83;100.00;62900.06;5023450;28;20068;-62
2022/06/28 10:55:03;;;;;;;5.78;5.57;;;;;;;-143.83;100.00;62900.06;5021997;28;20144;-63
2022/06/28 10:57:34;;;;;;;5.65;5.45;;;;;;;-143.83;100.00;62900.06;5024376;28;20394;-63
2022/06/28 11:00:23;;;;;;;5.57;5.38;;;;;;;-143.83;100.00;62900.06;5023056;28;20032;-62
2022/06/28 11:02:49;;;;;;;5.70;5.50;;;;;;;-143.83;100.00;62900.06;5031507;28;20110;-61
2022/06/28 11:05:15;;;;;;;5.80;5.60;;;;;;;-143.83;100.00;62900.06;5019793;28;20030;-63
2022/06/28 11:07:43;;;;;;;5.60;5.40;;;;;;;-143.83;100.00;62900.06;5022427;28;20033;-63
2022/06/28 11:10:17;;;;;;;5.63;5.43;;;;;;;-143.83;100.00;62900.06;5022098;28;20126;-63
2022/06/28 11:12:43;;;;;;;5.70;5.50;;;;;;;-143.83;100.00;62900.06;5020608;28;20053;-62
2022/06/28 11:15:32;;;;;;;5.55;5.35;;;;;;;-143.83;100.00;62900.06;5024143;28;20481;-63
2022/06/28 11:17:59;;;;;;;5.60;5.40;;;;;;;-143.83;100.00;62900.06;5026855;28;20029;-62
2022/06/28 11:20:25;;;;;;;5.55;5.35;;;;;;;-143.83;100.00;62900.06;5029212;28;20112;-63
2022/06/28 11:22:52;;;;;;;5.50;5.30;;;;;;;-143.83;100.00;62900.06;5026219;28;20859;-62
2022/06/28 11:25:25;;;;;;;5.50;5.30;;;;;;;-143.83;100.00;62900.06;5029657;28;20083;-65